Time;durP1;ratioP1;P1;durP2;ratioP2;P2;SDS_P1;SDS_P2;PMS_P1;PMS_P2;Temp;Humidity;BMP_temperature;BMP_pressure;BME280_temperature;BME280_humidity;BME280_pressure;Samples;Min_cycle;Max_cycle;Signal;HPM_P1;HPM_P2
2023/12/11 00:01:11;;;;;;;34.88;5.72;;;;;;;;;;5075356;28;20124;-78
2023/12/11 00:03:37;;;;;;;37.50;5.35;;;;;;;;;;5092037;28;20115;-78
2023/12/11 00:06:03;;;;;;;33.80;5.30;;;;;;;;;;5093215;28;20035;-78
2023/12/11 00:08:29;;;;;;;37.45;5.75;;;;;;;;;;5091986;28;20388;-78
2023/12/11 00:10:55;;;;;;;37.85;4.95;;;;;;;;;;5095040;28;20097;-76
2023/12/11 00:13:22;;;;;;;39.35;4.70;;;;;;;;;;5098334;28;20051;-78
2023/12/11 00:15:48;;;;;;;36.05;5.65;;;;;;;;;;5097436;28;20047;-78
2023/12/11 00:18:14;;;;;;;42.05;5.68;;;;;;;;;;5096113;28;20089;-78
2023/12/11 00:20:40;;;;;;;42.67;5.82;;;;;;;;;;5092087;28;20072;-78
2023/12/11 00:23:06;;;;;;;38.83;5.15;;;;;;;;;;5093072;28;20506;-77
2023/12/11 00:25:32;;;;;;;37.72;5.25;;;;;;;;;;5092100;28;20089;-79
2023/12/11 00:27:58;;;;;;;35.47;4.93;;;;;;;;;;5092022;28;20040;-80
2023/12/11 00:30:24;;;;;;;39.00;5.03;;;;;;;;;;5091793;28;20119;-78
2023/12/11 00:32:50;;;;;;;37.03;5.53;;;;;;;;;;5091762;28;20083;-79
2023/12/11 00:35:17;;;;;;;31.92;4.60;;;;;;;;;;5091422;28;20044;-78
2023/12/11 00:37:43;;;;;;;36.15;6.05;;;;;;;;;;5091801;28;20041;-78
2023/12/11 00:40:09;;;;;;;40.60;5.40;;;;;;;;;;5091089;28;20040;-78
2023/12/11 00:42:35;;;;;;;31.90;4.15;;;;;;;;;;5091073;28;20040;-71
2023/12/11 00:45:01;;;;;;;31.20;5.32;;;;;;;;;;5091122;28;20372;-72
2023/12/11 00:47:28;;;;;;;37.28;4.78;;;;;;;;;;5091821;28;20039;-71
2023/12/11 00:49:54;;;;;;;27.13;5.20;;;;;;;;;;5077836;28;20056;-71
2023/12/11 00:52:20;;;;;;;39.80;5.35;;;;;;;;;;5096788;28;20434;-70
2023/12/11 00:54:46;;;;;;;39.33;4.72;;;;;;;;;;5096302;28;20105;-71
2023/12/11 00:57:12;;;;;;;34.47;4.57;;;;;;;;;;5095251;28;20384;-71
2023/12/11 00:59:41;;;;;;;28.98;4.78;;;;;;;;;;5095033;28;20046;-71
2023/12/11 01:02:08;;;;;;;40.42;5.15;;;;;;;;;;5095115;28;20122;-70
2023/12/11 01:04:34;;;;;;;32.03;5.25;;;;;;;;;;5094937;28;20082;-70
2023/12/11 01:07:00;;;;;;;32.20;4.85;;;;;;;;;;5094984;28;20040;-71
2023/12/11 01:09:26;;;;;;;29.23;5.07;;;;;;;;;;5095342;28;20048;-71
2023/12/11 01:11:52;;;;;;;37.67;5.07;;;;;;;;;;5094407;28;20051;-71
2023/12/11 01:14:18;;;;;;;33.58;4.60;;;;;;;;;;5077699;28;20101;-73
2023/12/11 01:16:44;;;;;;;36.08;4.43;;;;;;;;;;5094798;28;20036;-71
2023/12/11 01:19:10;;;;;;;37.42;5.43;;;;;;;;;;5095061;28;20055;-71
2023/12/11 01:21:36;;;;;;;31.98;4.55;;;;;;;;;;5094683;28;20086;-71
2023/12/11 01:24:02;;;;;;;32.55;4.63;;;;;;;;;;5094952;28;20513;-71
2023/12/11 01:26:29;;;;;;;26.90;4.40;;;;;;;;;;5094633;28;20396;-70
2023/12/11 01:28:55;;;;;;;31.27;4.28;;;;;;;;;;5094611;28;20118;-71
2023/12/11 01:31:21;;;;;;;26.92;4.82;;;;;;;;;;5094392;28;20051;-71
2023/12/11 01:33:47;;;;;;;34.08;5.65;;;;;;;;;;5077853;28;20535;-71
2023/12/11 01:36:13;;;;;;;33.75;4.35;;;;;;;;;;5094044;28;20040;-71
2023/12/11 01:38:39;;;;;;;23.23;3.63;;;;;;;;;;5094160;28;20032;-71
2023/12/11 01:41:05;;;;;;;31.40;5.38;;;;;;;;;;5077017;28;20043;-70
2023/12/11 01:43:31;;;;;;;34.45;4.72;;;;;;;;;;5094287;28;20051;-71
2023/12/11 01:46:01;;;;;;;31.25;5.00;;;;;;;;;;5093392;28;20044;-71
2023/12/11 01:48:28;;;;;;;27.88;4.53;;;;;;;;;;5094311;28;20032;-70
2023/12/11 01:50:54;;;;;;;31.33;4.50;;;;;;;;;;5095396;28;20396;-70
2023/12/11 01:53:20;;;;;;;26.17;4.57;;;;;;;;;;5094013;28;20040;-71
2023/12/11 01:55:47;;;;;;;28.05;4.10;;;;;;;;;;5094264;28;20082;-71
2023/12/11 01:58:14;;;;;;;27.73;4.30;;;;;;;;;;5092837;28;20040;-71
2023/12/11 02:00:40;;;;;;;29.88;5.03;;;;;;;;;;5093969;28;20051;-71
2023/12/11 02:03:06;;;;;;;34.78;4.88;;;;;;;;;;5093955;28;20051;-71
2023/12/11 02:05:32;;;;;;;34.80;5.43;;;;;;;;;;5093440;28;20071;-71
2023/12/11 02:07:58;;;;;;;33.22;4.53;;;;;;;;;;5093799;28;20087;-71
2023/12/11 02:10:25;;;;;;;34.10;5.88;;;;;;;;;;5093962;28;20040;-71
2023/12/11 02:12:51;;;;;;;26.90;4.80;;;;;;;;;;5093828;28;20051;-71
2023/12/11 02:15:36;;;;;;;33.17;4.00;;;;;;;;;;5093683;28;20032;-71
2023/12/11 02:18:02;;;;;;;34.22;5.47;;;;;;;;;;5093300;28;20044;-71
2023/12/11 02:20:28;;;;;;;30.83;4.57;;;;;;;;;;5093155;28;20043;-71
2023/12/11 02:22:55;;;;;;;35.72;4.85;;;;;;;;;;5093188;28;20071;-79
2023/12/11 02:25:21;;;;;;;40.13;5.32;;;;;;;;;;5093762;28;20407;-79
2023/12/11 02:27:47;;;;;;;41.30;4.97;;;;;;;;;;5093385;28;20040;-79
2023/12/11 02:30:13;;;;;;;47.08;5.13;;;;;;;;;;5094193;28;20392;-79
2023/12/11 02:32:39;;;;;;;32.92;4.85;;;;;;;;;;5094006;28;20047;-79
2023/12/11 02:35:05;;;;;;;42.30;6.03;;;;;;;;;;5076846;28;20537;-79
2023/12/11 02:37:31;;;;;;;38.08;5.43;;;;;;;;;;5076889;28;20048;-78
2023/12/11 02:39:58;;;;;;;40.47;5.28;;;;;;;;;;5093226;28;20387;-79
2023/12/11 02:42:24;;;;;;;35.92;5.00;;;;;;;;;;5093020;28;20048;-78
2023/12/11 02:44:50;;;;;;;39.30;5.90;;;;;;;;;;5099803;28;20369;-78
2023/12/11 02:47:16;;;;;;;39.40;5.38;;;;;;;;;;5094273;28;20101;-79
2023/12/11 02:49:42;;;;;;;36.08;5.20;;;;;;;;;;5093668;28;20127;-79
2023/12/11 02:52:08;;;;;;;34.95;5.50;;;;;;;;;;5095347;28;20048;-78
2023/12/11 02:54:34;;;;;;;42.10;5.35;;;;;;;;;;5076959;28;20039;-79
2023/12/11 02:57:00;;;;;;;41.20;5.97;;;;;;;;;;5093763;28;20036;-79
2023/12/11 02:59:26;;;;;;;33.38;5.40;;;;;;;;;;5097497;28;20036;-78
2023/12/11 03:01:52;;;;;;;38.95;6.03;;;;;;;;;;5102989;28;20127;-79
2023/12/11 03:04:18;;;;;;;38.03;5.30;;;;;;;;;;5100497;28;20131;-79
2023/12/11 03:06:44;;;;;;;35.17;5.65;;;;;;;;;;5101947;28;20039;-79
2023/12/11 03:09:10;;;;;;;41.65;5.55;;;;;;;;;;5096718;28;20440;-78
2023/12/11 03:11:37;;;;;;;36.53;5.18;;;;;;;;;;5092714;28;20055;-79
2023/12/11 03:14:03;;;;;;;34.67;4.82;;;;;;;;;;5092964;28;20434;-79
2023/12/11 03:16:29;;;;;;;35.92;4.88;;;;;;;;;;5092640;28;20047;-79
2023/12/11 03:18:55;;;;;;;40.97;5.20;;;;;;;;;;5092672;28;20028;-78
2023/12/11 03:21:21;;;;;;;43.20;6.53;;;;;;;;;;5093338;28;20472;-78
2023/12/11 03:23:47;;;;;;;42.72;5.82;;;;;;;;;;5091336;28;20075;-78
2023/12/11 03:26:13;;;;;;;34.50;5.38;;;;;;;;;;5092840;28;20039;-78
2023/12/11 03:28:39;;;;;;;40.97;5.63;;;;;;;;;;5093279;28;20047;-78
2023/12/11 03:31:05;;;;;;;34.50;6.28;;;;;;;;;;5077778;28;20048;-78
2023/12/11 03:33:31;;;;;;;37.25;5.68;;;;;;;;;;5094711;28;20113;-78
2023/12/11 03:35:57;;;;;;;36.97;5.28;;;;;;;;;;5076135;28;20043;-78
2023/12/11 03:38:24;;;;;;;39.40;5.30;;;;;;;;;;5092339;28;20035;-78
2023/12/11 03:40:50;;;;;;;38.05;5.82;;;;;;;;;;5092354;28;20067;-71
2023/12/11 03:43:16;;;;;;;43.70;4.97;;;;;;;;;;5091610;28;20040;-71
2023/12/11 03:45:42;;;;;;;36.38;5.32;;;;;;;;;;5091855;28;20050;-71
2023/12/11 03:48:08;;;;;;;46.95;6.00;;;;;;;;;;5092186;28;20047;-71
2023/12/11 03:50:34;;;;;;;41.53;6.47;;;;;;;;;;5091699;28;20055;-71
2023/12/11 03:53:00;;;;;;;41.80;5.25;;;;;;;;;;5092103;28;20401;-71
2023/12/11 03:55:27;;;;;;;40.85;6.45;;;;;;;;;;5091591;28;20508;-72
2023/12/11 03:57:53;;;;;;;40.22;5.72;;;;;;;;;;5091794;28;20039;-71
2023/12/11 04:00:19;;;;;;;35.00;5.05;;;;;;;;;;5074364;28;20032;-71
2023/12/11 04:02:45;;;;;;;39.10;5.43;;;;;;;;;;5091925;28;20040;-71
2023/12/11 04:05:12;;;;;;;42.97;6.03;;;;;;;;;;5091756;28;20047;-71
2023/12/11 04:07:38;;;;;;;37.08;5.20;;;;;;;;;;5091651;28;20061;-71
2023/12/11 04:10:04;;;;;;;31.25;4.78;;;;;;;;;;5091077;28;20047;-71
2023/12/11 04:12:30;;;;;;;51.25;5.35;;;;;;;;;;5074735;28;20036;-71
2023/12/11 04:15:00;;;;;;;44.47;6.05;;;;;;;;;;5091772;28;20039;-72
2023/12/11 04:17:26;;;;;;;33.50;5.35;;;;;;;;;;5095690;28;20038;-71
2023/12/11 04:19:52;;;;;;;38.33;4.85;;;;;;;;;;5091452;28;20043;-71
2023/12/11 04:22:19;;;;;;;32.75;4.72;;;;;;;;;;5089164;28;20062;-71
2023/12/11 04:24:45;;;;;;;36.72;4.70;;;;;;;;;;5075113;28;20079;-71
2023/12/11 04:27:11;;;;;;;40.63;4.57;;;;;;;;;;5091054;28;20394;-71
2023/12/11 04:29:37;;;;;;;43.28;6.20;;;;;;;;;;5091653;28;20372;-73
2023/12/11 04:32:03;;;;;;;40.90;4.53;;;;;;;;;;5091214;28;20047;-71
2023/12/11 04:34:29;;;;;;;29.30;4.43;;;;;;;;;;5091588;28;20505;-71
2023/12/11 04:36:56;;;;;;;43.00;5.47;;;;;;;;;;5091227;28;20036;-71
2023/12/11 04:39:22;;;;;;;39.47;5.20;;;;;;;;;;5091063;28;20329;-71
2023/12/11 04:41:48;;;;;;;37.55;5.95;;;;;;;;;;5090924;28;20091;-72
2023/12/11 04:44:14;;;;;;;35.33;4.70;;;;;;;;;;5074373;28;20075;-71
2023/12/11 04:46:40;;;;;;;37.92;5.25;;;;;;;;;;5073960;28;20032;-71
2023/12/11 04:49:06;;;;;;;35.80;5.63;;;;;;;;;;5091581;28;20040;-71
2023/12/11 04:51:32;;;;;;;34.20;5.07;;;;;;;;;;5090853;28;20052;-71
2023/12/11 04:53:59;;;;;;;27.13;4.15;;;;;;;;;;5092715;28;20368;-71
2023/12/11 04:56:25;;;;;;;35.00;4.57;;;;;;;;;;5091257;28;20051;-71
2023/12/11 04:58:51;;;;;;;36.28;5.05;;;;;;;;;;5091429;28;20358;-71
2023/12/11 05:01:17;;;;;;;29.17;4.32;;;;;;;;;;5091284;28;20046;-71
2023/12/11 05:03:44;;;;;;;39.40;4.30;;;;;;;;;;5091338;28;20039;-71
2023/12/11 05:06:10;;;;;;;35.47;4.40;;;;;;;;;;5091373;28;20093;-71
2023/12/11 05:08:36;;;;;;;32.92;5.15;;;;;;;;;;5091137;28;20040;-71
2023/12/11 05:11:02;;;;;;;34.60;5.25;;;;;;;;;;5090978;28;20097;-71
2023/12/11 05:13:28;;;;;;;30.58;4.40;;;;;;;;;;5090760;28;20040;-71
2023/12/11 05:15:55;;;;;;;24.05;4.63;;;;;;;;;;5074442;28;20047;-71
2023/12/11 05:18:21;;;;;;;36.28;5.68;;;;;;;;;;5090757;28;20047;-70
2023/12/11 05:20:47;;;;;;;38.03;5.65;;;;;;;;;;5091326;28;20032;-71
2023/12/11 05:23:13;;;;;;;37.50;4.75;;;;;;;;;;5090543;28;20127;-70
2023/12/11 05:25:39;;;;;;;34.67;4.55;;;;;;;;;;5091267;28;20047;-72
2023/12/11 05:28:05;;;;;;;35.17;3.88;;;;;;;;;;5090264;28;20104;-72
2023/12/11 05:30:31;;;;;;;25.63;3.50;;;;;;;;;;5091048;28;20096;-72
2023/12/11 05:32:59;;;;;;;36.40;5.00;;;;;;;;;;5090693;28;20540;-72
2023/12/11 05:35:25;;;;;;;24.73;4.00;;;;;;;;;;5094537;28;20040;-72
2023/12/11 05:37:51;;;;;;;26.60;4.57;;;;;;;;;;5094071;28;20166;-72
2023/12/11 05:40:17;;;;;;;27.80;3.70;;;;;;;;;;5094536;28;20480;-72
2023/12/11 05:42:43;;;;;;;21.65;3.92;;;;;;;;;;5077559;28;20042;-72
2023/12/11 05:45:10;;;;;;;26.45;4.47;;;;;;;;;;5111359;28;20062;-72
2023/12/11 05:47:36;;;;;;;32.17;4.30;;;;;;;;;;5094328;28;20043;-72
2023/12/11 05:50:02;;;;;;;23.75;3.63;;;;;;;;;;5094396;28;20113;-72
2023/12/11 05:52:28;;;;;;;23.33;3.28;;;;;;;;;;5094363;28;20052;-71
2023/12/11 05:54:54;;;;;;;28.92;4.00;;;;;;;;;;5094134;28;20043;-72
2023/12/11 05:57:21;;;;;;;31.80;4.00;;;;;;;;;;5077378;28;20082;-71
2023/12/11 05:59:47;;;;;;;25.02;3.80;;;;;;;;;;5077007;28;20079;-72
2023/12/11 06:02:14;;;;;;;23.65;4.00;;;;;;;;;;5076813;28;20072;-72
2023/12/11 06:04:40;;;;;;;24.05;3.90;;;;;;;;;;5093696;28;20097;-72
2023/12/11 06:07:06;;;;;;;20.27;3.90;;;;;;;;;;5094052;28;20040;-71
2023/12/11 06:09:32;;;;;;;30.58;3.88;;;;;;;;;;5093459;28;20746;-71
2023/12/11 06:11:58;;;;;;;23.10;4.13;;;;;;;;;;5093728;28;20051;-72
2023/12/11 06:14:24;;;;;;;22.95;3.30;;;;;;;;;;5093418;28;20119;-71
2023/12/11 06:16:50;;;;;;;18.27;3.65;;;;;;;;;;5093781;28;20397;-72
2023/12/11 06:19:16;;;;;;;25.17;4.15;;;;;;;;;;5093571;28;20035;-72
2023/12/11 06:21:43;;;;;;;27.38;4.53;;;;;;;;;;5076867;28;20059;-71
2023/12/11 06:24:09;;;;;;;26.88;3.55;;;;;;;;;;5092977;28;20104;-71
2023/12/11 06:26:35;;;;;;;26.58;3.78;;;;;;;;;;5076745;28;20044;-71
2023/12/11 06:29:01;;;;;;;22.85;3.55;;;;;;;;;;5093868;28;20113;-72
2023/12/11 06:31:28;;;;;;;22.95;3.88;;;;;;;;;;5076742;28;20523;-79
2023/12/11 06:33:54;;;;;;;21.83;3.35;;;;;;;;;;5077280;28;20075;-78
2023/12/11 06:36:21;;;;;;;25.38;3.17;;;;;;;;;;5093788;28;20032;-78
2023/12/11 06:38:50;;;;;;;18.02;3.20;;;;;;;;;;5093554;28;20036;-79
2023/12/11 06:41:17;;;;;;;21.48;3.65;;;;;;;;;;5092146;28;20040;-79
2023/12/11 06:43:43;;;;;;;23.60;3.92;;;;;;;;;;5093870;28;20050;-78
2023/12/11 06:46:09;;;;;;;22.98;3.13;;;;;;;;;;5092499;28;20036;-80
2023/12/11 06:48:35;;;;;;;20.85;4.45;;;;;;;;;;5093087;28;20032;-79
2023/12/11 06:51:01;;;;;;;20.85;4.22;;;;;;;;;;5092674;28;20050;-79
2023/12/11 06:53:27;;;;;;;16.88;4.20;;;;;;;;;;5093001;28;20036;-79
2023/12/11 06:55:53;;;;;;;22.70;3.65;;;;;;;;;;5093049;28;20439;-79
2023/12/11 06:58:21;;;;;;;20.67;3.60;;;;;;;;;;5092640;28;20159;-79
2023/12/11 07:00:47;;;;;;;26.77;3.60;;;;;;;;;;5092958;28;20040;-78
2023/12/11 07:03:13;;;;;;;21.23;3.85;;;;;;;;;;5093705;28;20090;-79
2023/12/11 07:05:43;;;;;;;17.73;3.58;;;;;;;;;;5093448;28;20039;-79
2023/12/11 07:08:09;;;;;;;15.48;3.20;;;;;;;;;;5093483;28;20044;-80
2023/12/11 07:10:35;;;;;;;19.90;3.63;;;;;;;;;;5093706;28;20075;-79
2023/12/11 07:13:02;;;;;;;21.77;4.13;;;;;;;;;;5093318;28;20045;-79
2023/12/11 07:15:29;;;;;;;22.10;3.70;;;;;;;;;;5093354;28;20089;-78
2023/12/11 07:17:58;;;;;;;16.92;3.90;;;;;;;;;;5092832;28;20522;-78
2023/12/11 07:20:24;;;;;;;18.13;3.67;;;;;;;;;;5093033;28;20036;-79
2023/12/11 07:22:50;;;;;;;21.55;3.58;;;;;;;;;;5092979;28;20135;-72
2023/12/11 07:25:16;;;;;;;23.67;4.38;;;;;;;;;;5092794;28;20052;-72
2023/12/11 07:27:45;;;;;;;19.55;3.58;;;;;;;;;;5091853;28;20044;-72
2023/12/11 07:30:14;;;;;;;15.63;3.55;;;;;;;;;;5074804;28;20047;-72
2023/12/11 07:32:41;;;;;;;14.18;3.38;;;;;;;;;;5109166;28;20051;-79
2023/12/11 07:35:10;;;;;;;13.73;3.17;;;;;;;;;;5092887;28;20385;-78
2023/12/11 07:37:36;;;;;;;19.77;2.95;;;;;;;;;;5093373;28;20044;-79
2023/12/11 07:40:02;;;;;;;14.32;3.35;;;;;;;;;;5092924;28;20047;-79
2023/12/11 07:42:28;;;;;;;14.30;2.58;;;;;;;;;;5092723;28;20036;-79
2023/12/11 07:44:55;;;;;;;20.27;3.55;;;;;;;;;;5092454;28;20040;-79
2023/12/11 07:47:21;;;;;;;15.18;3.17;;;;;;;;;;5092264;28;20044;-79
2023/12/11 07:49:47;;;;;;;19.00;2.63;;;;;;;;;;5076131;28;20075;-78
2023/12/11 07:52:14;;;;;;;20.50;3.60;;;;;;;;;;5092339;28;20123;-79
2023/12/11 07:54:40;;;;;;;15.88;3.17;;;;;;;;;;5093378;28;20036;-79
2023/12/11 07:57:06;;;;;;;17.30;3.10;;;;;;;;;;5097253;28;20040;-79
2023/12/11 07:59:32;;;;;;;15.60;3.35;;;;;;;;;;5077932;28;20477;-79
2023/12/11 08:01:58;;;;;;;15.98;2.90;;;;;;;;;;5081587;28;20032;-79
2023/12/11 08:04:24;;;;;;;14.98;3.50;;;;;;;;;;5103212;28;20461;-79
2023/12/11 08:06:50;;;;;;;18.75;2.90;;;;;;;;;;5092074;28;20039;-79
2023/12/11 08:09:16;;;;;;;20.95;2.90;;;;;;;;;;5091717;28;20511;-79
2023/12/11 08:11:43;;;;;;;15.20;3.03;;;;;;;;;;5075223;28;20047;-79
2023/12/11 08:14:09;;;;;;;13.65;3.47;;;;;;;;;;5091133;28;20137;-79
2023/12/11 08:16:35;;;;;;;20.38;3.40;;;;;;;;;;5089937;28;20032;-79
2023/12/11 08:19:01;;;;;;;24.92;4.50;;;;;;;;;;5091842;28;20074;-79
2023/12/11 08:21:27;;;;;;;20.63;4.05;;;;;;;;;;5090689;28;20043;-79
2023/12/11 08:23:53;;;;;;;25.95;4.57;;;;;;;;;;5080772;28;20504;-80
2023/12/11 08:26:19;;;;;;;22.95;4.43;;;;;;;;;;5086503;28;20040;-80
2023/12/11 08:28:46;;;;;;;24.45;4.05;;;;;;;;;;5086221;28;20105;-80
2023/12/11 08:31:12;;;;;;;18.33;3.38;;;;;;;;;;5078152;28;20507;-79
2023/12/11 08:33:38;;;;;;;21.00;3.88;;;;;;;;;;5092165;28;20044;-80
2023/12/11 08:36:05;;;;;;;17.45;3.15;;;;;;;;;;5094352;28;20040;-80
2023/12/11 08:38:31;;;;;;;17.80;3.50;;;;;;;;;;5078053;28;20481;-81
2023/12/11 08:40:57;;;;;;;25.77;3.72;;;;;;;;;;5104762;28;20035;-79
2023/12/11 08:43:23;;;;;;;17.83;3.25;;;;;;;;;;5098934;28;20075;-80
2023/12/11 08:45:49;;;;;;;19.58;3.75;;;;;;;;;;5106130;28;20074;-79
2023/12/11 08:48:16;;;;;;;16.30;2.60;;;;;;;;;;5092584;28;20067;-80
2023/12/11 08:50:42;;;;;;;14.05;3.08;;;;;;;;;;5087387;28;20063;-80
2023/12/11 08:53:09;;;;;;;15.85;2.60;;;;;;;;;;5073942;28;20051;-82
2023/12/11 08:55:35;;;;;;;19.25;4.07;;;;;;;;;;5092070;28;20063;-81
2023/12/11 08:58:02;;;;;;;21.17;3.25;;;;;;;;;;5091964;28;20055;-81
2023/12/11 09:00:29;;;;;;;19.17;3.40;;;;;;;;;;5092141;28;20047;-80
2023/12/11 09:03:04;;;;;;;22.20;2.78;;;;;;;;;;5099562;28;20093;-81
2023/12/11 09:05:30;;;;;;;17.13;2.30;;;;;;;;;;5091170;28;20046;-81
2023/12/11 09:08:02;;;;;;;18.55;2.60;;;;;;;;;;5091801;28;20051;-80
2023/12/11 09:10:29;;;;;;;17.10;2.35;;;;;;;;;;5079306;28;20086;-80
2023/12/11 09:12:55;;;;;;;23.17;2.78;;;;;;;;;;5079721;28;20044;-81
2023/12/11 09:15:21;;;;;;;17.08;2.90;;;;;;;;;;5097858;28;20032;-81
2023/12/11 09:17:51;;;;;;;24.73;3.20;;;;;;;;;;5099713;28;20036;-80
2023/12/11 09:20:17;;;;;;;16.08;2.70;;;;;;;;;;5101123;28;20051;-80
2023/12/11 09:22:44;;;;;;;17.80;2.42;;;;;;;;;;5068083;28;20098;-80
2023/12/11 09:25:16;;;;;;;15.95;2.53;;;;;;;;;;5086644;28;20032;-80
2023/12/11 09:27:45;;;;;;;14.90;2.78;;;;;;;;;;5087836;28;20039;-81
2023/12/11 09:30:11;;;;;;;16.48;3.22;;;;;;;;;;5085906;28;20036;-80
2023/12/11 09:32:41;;;;;;;23.25;3.05;;;;;;;;;;5104069;28;20585;-80
2023/12/11 09:35:10;;;;;;;17.73;2.45;;;;;;;;;;5096529;28;20481;-81
2023/12/11 09:37:37;;;;;;;21.63;3.40;;;;;;;;;;5095332;28;20116;-80
2023/12/11 09:40:03;;;;;;;14.82;2.80;;;;;;;;;;5062092;28;20071;-80
2023/12/11 09:42:33;;;;;;;22.48;4.13;;;;;;;;;;5095632;28;20392;-81
2023/12/11 09:44:59;;;;;;;19.98;3.90;;;;;;;;;;5082816;28;20130;-80
2023/12/11 09:47:37;;;;;;;15.13;2.90;;;;;;;;;;5095915;28;20036;-80
2023/12/11 09:50:03;;;;;;;21.50;3.03;;;;;;;;;;5094338;28;20052;-80
2023/12/11 09:52:29;;;;;;;17.92;2.80;;;;;;;;;;5082755;28;20502;-80
2023/12/11 09:54:55;;;;;;;18.75;3.60;;;;;;;;;;5098355;28;20475;-80
2023/12/11 09:57:22;;;;;;;24.27;3.58;;;;;;;;;;5115569;28;20104;-80
2023/12/11 09:59:50;;;;;;;22.73;3.17;;;;;;;;;;5115333;28;20075;-80
2023/12/11 10:02:17;;;;;;;28.25;3.55;;;;;;;;;;5079892;28;20449;-80
2023/12/11 10:05:04;;;;;;;29.50;3.63;;;9.30;99.90;;;;;;5094797;28;20043;-80
2023/12/11 10:07:32;;;;;;;21.88;2.83;;;;;;;;;;5082086;28;20161;-80
2023/12/11 10:10:26;;;;;;;20.23;4.25;;;;;;;;;;5115313;28;20126;-80
2023/12/11 10:12:54;;;;;;;28.65;3.00;;;;;;;;;;5114671;28;20040;-79
2023/12/11 10:15:25;;;;;;;16.52;2.85;;;;;;;;;;5097830;28;20036;-80
2023/12/11 10:18:04;;;;;;;20.85;2.60;;;;;;;;;;5108472;28;20177;-80
2023/12/11 10:20:31;;;;;;;15.80;2.17;;;;;;;;;;5094506;28;20050;-80
2023/12/11 10:22:57;;;;;;;15.95;2.92;;;;;;;;;;5101487;28;20122;-80
2023/12/11 10:25:30;;;;;;;14.27;2.42;;;;;;;;;;5104420;28;20051;-80
2023/12/11 10:28:04;;;;;;;26.75;3.38;;;;;;;;;;5077587;28;20151;-80
2023/12/11 10:30:30;;;;;;;18.38;3.15;;;;;;;;;;5094283;28;20035;-80
2023/12/11 10:33:01;;;;;;;20.30;2.97;;;;;;;;;;5093795;28;20051;-79
2023/12/11 10:35:27;;;;;;;20.00;3.08;;;;;;;;;;5077426;28;20392;-80
2023/12/11 10:38:00;;;;;;;12.95;2.42;;;;;;;;;;5094459;28;20063;-80
2023/12/11 10:40:40;;;;;;;19.90;3.60;;;;;;;;;;5094348;28;20036;-80
2023/12/11 10:43:07;;;;;;;24.83;3.10;;;;;;;;;;5101523;28;20466;-80
2023/12/11 10:45:33;;;;;;;21.83;2.78;;;;;;;;;;5097645;28;20150;-79
2023/12/11 10:48:00;;;;;;;12.52;2.70;;;;;;;;;;5108067;28;20553;-80
2023/12/11 10:50:26;;;;;;;14.20;2.63;;;;;;;;;;5076570;28;20511;-80
2023/12/11 10:52:53;;;;;;;11.07;2.50;;;;;;;;;;5093799;28;20040;-80
2023/12/11 10:55:19;;;;;;;12.10;2.60;;;;;;;;;;5093881;28;20597;-80
2023/12/11 10:57:47;;;;;;;12.52;2.83;;;;;;;;;;5080380;28;20059;-80
2023/12/11 11:00:14;;;;;;;9.95;2.00;;;;;;;;;;5104196;28;20044;-80
2023/12/11 11:02:42;;;;;;;10.98;2.10;;;;;;;;;;5112729;28;20056;-80
2023/12/11 11:05:08;;;;;;;9.48;1.40;;;;;;;;;;5113836;28;20084;-80
2023/12/11 11:07:36;;;;;;;10.93;1.83;;;;;;;;;;5104239;28;20048;-80
2023/12/11 11:10:21;;;;;;;9.52;1.80;;;;;;;;;;5093710;28;20127;-79
2023/12/11 11:12:53;;;;;;;9.75;1.88;;;;;;;;;;5111283;28;20120;-80
2023/12/11 11:15:23;;;;;;;16.27;2.38;;;;;;;;;;5102728;28;20213;-80
2023/12/11 11:18:05;;;;;;;17.00;3.30;;;;;;;;;;5076055;28;20050;-80
2023/12/11 11:20:35;;;;;;;13.73;3.03;;;;;;;;;;5096596;28;20036;-80
2023/12/11 11:23:16;;;;;;;16.23;2.92;;;;;;;;;;5104869;28;20044;-80
2023/12/11 11:25:45;;;;;;;29.85;4.03;;;;;;;;;;5102018;28;20036;-80
2023/12/11 11:28:30;;;;;;;14.18;3.00;;;;;;;;;;5102475;28;20047;-80
2023/12/11 11:30:56;;;;;;;29.45;4.25;;;;;;;;;;5101674;28;20063;-81
2023/12/11 11:33:22;;;;;;;18.88;3.40;;;;;;;;;;5076214;28;20047;-80
2023/12/11 11:35:52;;;;;;;18.27;3.22;;;;;;;;;;5092217;28;20514;-80
2023/12/11 11:38:20;;;;;;;22.08;3.85;;;;;;;;;;5092291;28;20123;-80
2023/12/11 11:40:48;;;;;;;24.80;3.38;;;;;;;;;;5075306;28;20040;-81
2023/12/11 11:43:14;;;;;;;21.17;2.72;;;;;;;;;;5092468;28;20127;-81
2023/12/11 11:45:41;;;;;;;20.50;3.13;;;;;;;;;;5092154;28;20048;-79
2023/12/11 11:48:07;;;;;;;13.35;2.55;;;;;;;;;;5106352;28;20096;-80
2023/12/11 11:50:33;;;;;;;18.10;3.20;;;;;;;;;;5093122;28;20052;-80
2023/12/11 11:53:05;;;;;;;18.92;2.35;;;;;;;;;;5103726;28;20382;-79
2023/12/11 11:55:31;;;;;;;14.17;2.83;;;;;;;;;;5083329;28;20036;-80
2023/12/11 11:57:57;;;;;;;7.60;2.40;;;;;;;;;;5083706;28;20281;-80
2023/12/11 12:00:24;;;;;;;17.08;2.83;;;;;;;;;;5087416;28;20400;-80
2023/12/11 12:03:00;;;;;;;12.43;2.30;;;;;;;;;;5080850;28;20507;-80
2023/12/11 12:05:26;;;;;;;14.70;2.03;;;;;;;;;;5076126;28;20123;-80
2023/12/11 12:07:54;;;;;;;11.57;1.83;;;;;;;;;;5098023;28;20044;-80
2023/12/11 12:10:20;;;;;;;10.55;1.73;;;;;;;;;;5095551;28;20126;-80
2023/12/11 12:12:52;;;;;;;8.95;1.98;;;;;;;;;;5092431;28;20511;-80
2023/12/11 12:15:19;;;;;;;9.82;2.05;;;;;;;;;;5091498;28;20515;-80
2023/12/11 12:17:45;;;;;;;9.85;2.13;;;;;;;;;;5067155;28;20044;-80
2023/12/11 12:20:16;;;;;;;9.90;1.48;;;;;;;;;;5086310;28;20036;-80
2023/12/11 12:23:01;;;;;;;10.07;1.98;;;;;;;;;;5080732;28;20392;-81
2023/12/11 12:25:28;;;;;;;8.40;1.08;;;;;;;;;;5098183;28;20040;-80
2023/12/11 12:27:56;;;;;;;11.90;1.67;;;;;;;;;;5099380;28;20076;-80
2023/12/11 12:30:22;;;;;;;11.68;1.40;;;;;;;;;;5092227;28;20036;-80
2023/12/11 12:32:50;;;;;;;7.75;1.52;;;;;;;;;;5092102;28;20043;-80
2023/12/11 12:35:16;;;;;;;11.60;2.20;;;;;;;;;;5074980;28;20473;-80
2023/12/11 12:37:43;;;;;;;14.77;1.90;;;;;;;;;;5069269;28;20438;-80
2023/12/11 12:40:11;;;;;;;7.45;1.75;;;;;;;;;;5096420;28;20119;-79
2023/12/11 12:42:38;;;;;;;9.10;1.73;;;;;;;;;;5088882;28;20044;-80
2023/12/11 12:45:04;;;;;;;10.60;2.10;;;;;;;;;;5096219;28;20192;-80
2023/12/11 12:47:31;;;;;;;7.43;1.95;;;;;;;;;;5096751;28;20043;-80
2023/12/11 12:49:57;;;;;;;11.60;2.03;;;;;;;;;;5078363;28;20048;-79
2023/12/11 12:52:25;;;;;;;8.45;1.50;;;;;;;;;;5077579;28;20092;-79
2023/12/11 12:54:51;;;;;;;11.15;1.83;;;;;;;;;;5079196;28;20043;-80
2023/12/11 12:57:18;;;;;;;6.47;1.60;;;;;;;;;;5079161;28;20491;-79
2023/12/11 12:59:44;;;;;;;6.82;1.50;;;;;;;;;;5095227;28;20042;-79
2023/12/11 13:02:11;;;;;;;5.82;1.42;;;;;;;;;;5078491;28;20472;-79
2023/12/11 13:04:48;;;;;;;5.75;1.48;;;;;;;;;;5095458;28;20084;-79
2023/12/11 13:07:14;;;;;;;8.18;1.80;;;;;;;;;;5094690;28;20048;-79
2023/12/11 13:09:41;;;;;;;13.80;1.65;;;;;;;;;;5093480;28;20469;-79
2023/12/11 13:12:08;;;;;;;11.63;2.40;;;;;;;;;;5095564;28;20061;-79
2023/12/11 13:14:34;;;;;;;8.30;1.95;;;;;;;;;;5078718;28;20048;-79
2023/12/11 13:17:00;;;;;;;8.40;1.77;;;;;;;;;;5081150;28;20036;-79
2023/12/11 13:19:26;;;;;;;10.18;1.65;;;;;;;;;;5093645;28;20035;-73
2023/12/11 13:21:53;;;;;;;10.85;1.77;;;;;;;;;;5058144;28;20056;-73
2023/12/11 13:24:21;;;;;;;11.80;2.20;;;;;;;;;;5103815;28;20044;-73
2023/12/11 13:26:47;;;;;;;4.72;1.40;;;;;;;;;;5094487;28;20513;-73
2023/12/11 13:29:14;;;;;;;10.98;1.45;;;;;;;;;;5093322;28;20040;-73
2023/12/11 13:31:40;;;;;;;4.45;1.40;;;;;;;;;;5092895;28;20059;-73
2023/12/11 13:34:06;;;;;;;6.88;1.67;;;;;;;;;;5091504;28;20502;-73
2023/12/11 13:36:32;;;;;;;7.95;2.17;;;;;;;;;;5092197;28;20036;-73
2023/12/11 13:38:59;;;;;;;8.90;1.60;;;;;;;;;;5093260;28;20040;-73
2023/12/11 13:41:25;;;;;;;10.02;1.83;;;;;;;;;;5092191;28;20093;-73
2023/12/11 13:43:51;;;;;;;8.43;1.60;;;;;;;;;;5093697;28;20365;-73
2023/12/11 13:46:17;;;;;;;7.13;1.42;;;;;;;;;;5094337;28;20173;-73
2023/12/11 13:48:43;;;;;;;5.57;1.73;;;;;;;;;;5094771;28;20502;-73
2023/12/11 13:51:09;;;;;;;10.07;1.83;;;;;;;;;;5090560;28;20048;-80
2023/12/11 13:53:35;;;;;;;7.05;1.85;;;;;;;;;;5096200;28;20051;-79
2023/12/11 13:56:02;;;;;;;11.40;1.90;;;;;;;;;;5077215;28;20043;-79
2023/12/11 13:58:28;;;;;;;13.23;2.13;;;;;;;;;;5077761;28;20040;-79
2023/12/11 14:00:54;;;;;;;10.00;1.58;;;;;;;;;;5092757;28;20094;-78
2023/12/11 14:03:20;;;;;;;11.10;3.35;;;;;;;;;;5094394;28;20476;-78
2023/12/11 14:05:48;;;;;;;10.23;2.67;;;;;;;;;;5060742;28;20075;-78
2023/12/11 14:08:14;;;;;;;7.90;1.73;;;;;;;;;;5094860;28;20048;-78
2023/12/11 14:10:41;;;;;;;9.98;2.17;;;;;;;;;;5093917;28;20044;-79
2023/12/11 14:13:12;;;;;;;7.18;1.42;;;;;;;;;;5096122;28;20473;-78
2023/12/11 14:15:38;;;;;;;10.15;2.20;;;;;;;;;;5094349;28;20049;-79
2023/12/11 14:18:04;;;;;;;10.75;1.80;;;;;;;;;;5098856;28;20044;-78
2023/12/11 14:20:30;;;;;;;15.05;2.35;;;;;;;;;;5093776;28;20036;-78
2023/12/11 14:22:56;;;;;;;10.68;1.65;;;;;;;;;;5077596;28;20446;-78
2023/12/11 14:25:24;;;;;;;7.97;1.67;;;;;;;;;;5094928;28;20050;-77
2023/12/11 14:27:50;;;;;;;4.85;1.33;;;;;;;;;;5094282;28;20044;-78
2023/12/11 14:30:17;;;;;;;6.55;1.38;;;;;;;;;;5094124;28;20044;-77